Terminal Aerodrome Forecast
Issued by NWS Pueblo, CO

Home | Current Version | Previous Version | Text Only | Print | Product List | Glossary On
Versions: 1 2 3 4 5 6 7 8 9 10 11 12 13 14 15 16 17 18 19 20 21 22 23 24 25 26 27
000
FTUS45 KPUB 311140
TAFALS
TAF
KALS 311140Z 3112/0112 VRB05KT P6SM OVC110
     FM311300 20006KT P6SM VCSH SCT080 BKN110
     FM312000 24008KT P6SM VCTS SCT080CB BKN100
     FM010100 31008KT P6SM SCT080 BKN150
     FM010300 VRB06KT P6SM SCT100=

USA.gov is the U.S. government's official web portal to all federal, state and local government web resources and services.